Time;durP1;ratioP1;P1;durP2;ratioP2;P2;SDS_P1;SDS_P2;PMS_P1;PMS_P2;Temp;Humidity;BMP_temperature;BMP_pressure;BME280_temperature;BME280_humidity;BME280_pressure;Samples;Min_cycle;Max_cycle;Signal;HPM_P1;HPM_P2
2022/01/21 00:02:18;;;;;;;8.13;3.57;;;;;;;;;;5027122;28;20040;-68
2022/01/21 00:04:44;;;;;;;11.40;3.70;;;;;;;;;;5020252;28;20064;-68
2022/01/21 00:07:09;;;;;;;11.63;3.80;;;;;;;;;;5026311;28;20053;-69
2022/01/21 00:09:34;;;;;;;12.57;4.13;;;;;;;;;;5015908;28;20034;-69
2022/01/21 00:11:59;;;;;;;9.20;3.53;;;;;;;;;;5027773;28;20029;-69
2022/01/21 00:14:26;;;;;;;7.87;3.63;;;;;;;;;;5028205;28;20072;-68
2022/01/21 00:16:51;;;;;;;9.53;3.50;;;;;;;;;;5016504;28;20123;-68
2022/01/21 00:19:17;;;;;;;9.67;3.37;;;;;;;;;;5026512;28;20018;-70
2022/01/21 00:32:35;;;;;;;8.03;3.50;;;;;;;;;;5028053;28;20092;-70
2022/01/21 00:35:00;;;;;;;7.50;3.80;;;;;;;;;;5028621;28;20468;-69
2022/01/21 00:37:26;;;;;;;9.83;3.13;;;;;;;;;;5026647;28;20530;-69
2022/01/21 00:39:57;;;;;;;9.53;3.80;;;;;;;;;;5021870;28;20309;-69
2022/01/21 00:44:49;;;;;;;11.83;3.80;;;;;;;;;;5029008;28;20041;-69
2022/01/21 00:47:14;;;;;;;12.00;3.47;;;;;;;;;;5027639;28;20091;-69
2022/01/21 00:49:40;;;;;;;13.73;3.97;;;;;;;;;;5023777;28;20079;-69
2022/01/21 00:52:05;;;;;;;11.47;3.60;;;;;;;;;;5029179;28;20388;-69
2022/01/21 00:54:30;;;;;;;8.27;3.53;;;;;;;;;;5027740;28;20056;-70
2022/01/21 00:56:55;;;;;;;7.83;3.20;;;;;;;;;;5023628;28;20032;-70
2022/01/21 00:59:21;;;;;;;12.80;3.90;;;;;;;;;;5026788;28;20018;-69
2022/01/21 01:01:46;;;;;;;10.40;3.97;;;;;;;;;;5023655;28;20048;-70
2022/01/21 01:04:11;;;;;;;7.83;4.00;;;;;;;;;;5026544;28;20067;-69
2022/01/21 01:06:36;;;;;;;8.93;3.77;;;;;;;;;;5025637;28;20103;-69
2022/01/21 01:09:02;;;;;;;9.07;4.27;;;;;;;;;;5025541;28;20434;-69
2022/01/21 01:12:05;;;;;;;9.97;4.07;;;;;;;;;;5019673;28;20563;-69
2022/01/21 01:20:04;;;;;;;12.97;4.30;;;;;;;;;;5022430;28;20072;-69
2022/01/21 01:28:09;;;;;;;10.17;3.80;;;;;;;;;;5006423;28;20123;-70
2022/01/21 01:30:36;;;;;;;13.33;4.23;;;;;;;;;;5007347;28;20045;-70
2022/01/21 01:33:02;;;;;;;10.37;4.00;;;;;;;;;;5008199;28;20497;-68
2022/01/21 01:35:30;;;;;;;15.13;3.92;;;;;;;;;;5005434;28;20116;-69
2022/01/21 01:38:30;;;;;;;13.03;4.03;;;;;;;;;;5011060;28;20540;-69
2022/01/21 01:41:00;;;;;;;11.80;3.53;;;;;;;;;;5005270;28;20041;-69
2022/01/21 01:51:19;;;;;;;8.83;3.50;;;;;;;;;;5014882;28;20248;-70
2022/01/21 01:53:47;;;;;;;11.03;3.90;;;;;;;;;;5008872;28;20129;-69
2022/01/21 01:56:13;;;;;;;12.20;3.60;;;;;;;;;;5008598;28;20042;-69
2022/01/21 01:58:39;;;;;;;10.33;4.03;;;;;;;;;;5008778;28;20026;-70
2022/01/21 02:01:05;;;;;;;13.63;4.47;;;;;;;;;;5009664;28;20441;-70
2022/01/21 02:03:31;;;;;;;11.33;3.97;;;;;;;;;;5028459;28;20053;-69
2022/01/21 02:05:56;;;;;;;10.90;4.90;;;;;;;;;;5021233;28;20056;-69
2022/01/21 02:08:21;;;;;;;14.17;4.50;;;;;;;;;;5030552;28;20416;-70
2022/01/21 02:10:47;;;;;;;14.03;3.80;;;;;;;;;;5025065;28;20075;-69
2022/01/21 02:13:27;;;;;;;9.57;3.60;;;;;;;;;;5025701;28;20055;-69
2022/01/21 02:16:41;;;;;;;15.10;4.37;;;;;;;;;;5022364;28;20038;-69
2022/01/21 02:21:44;;;;;;;14.37;4.10;;;;;;;;;;5028066;28;20044;-69
2022/01/21 02:24:11;;;;;;;12.70;4.00;;;;;;;;;;5026385;28;20037;-70
2022/01/21 02:26:37;;;;;;;11.83;4.10;;;;;;;;;;5028895;28;20080;-70
2022/01/21 02:29:04;;;;;;;7.77;3.83;;;;;;;;;;5024820;28;20041;-69
2022/01/21 02:31:29;;;;;;;15.13;4.50;;;;;;;;;;5029652;28;20052;-69
2022/01/21 02:33:54;;;;;;;12.17;3.60;;;;;;;;;;5027061;28;20479;-69
2022/01/21 02:36:20;;;;;;;10.57;3.77;;;;;;;;;;5024521;28;20101;-70
2022/01/21 02:38:45;;;;;;;14.80;4.13;;;;;;;;;;5028993;28;20131;-69
2022/01/21 02:41:10;;;;;;;13.40;3.73;;;;;;;;;;5021729;28;20095;-69
2022/01/21 02:43:35;;;;;;;13.80;4.43;;;;;;;;;;5022323;28;20033;-70
2022/01/21 02:46:05;;;;;;;13.30;3.67;;;;;;;;;;5024484;28;20132;-69
2022/01/21 02:48:34;;;;;;;11.48;4.13;;;;;;;;;;5029403;28;20053;-68
2022/01/21 02:51:00;;;;;;;13.10;3.97;;;;;;;;;;5025252;28;20140;-69
2022/01/21 02:53:37;;;;;;;12.43;3.63;;;;;;;;;;5028183;28;20033;-69
2022/01/21 02:56:02;;;;;;;12.53;3.90;;;;;;;;;;5020778;28;20500;-69
2022/01/21 02:58:28;;;;;;;10.53;3.73;;;;;;;;;;5021926;28;20026;-69
2022/01/21 03:00:53;;;;;;;8.40;3.63;;;;;;;;;;5028646;28;20030;-69
2022/01/21 03:03:18;;;;;;;11.13;4.27;;;;;;;;;;5029146;28;20036;-69
2022/01/21 03:05:43;;;;;;;9.07;3.50;;;;;;;;;;5021551;28;20091;-69
2022/01/21 03:08:08;;;;;;;11.77;3.83;;;;;;;;;;5028296;28;20510;-69
2022/01/21 03:10:34;;;;;;;9.03;3.37;;;;;;;;;;5026895;28;20057;-69
2022/01/21 03:12:59;;;;;;;12.20;4.50;;;;;;;;;;5029632;28;20124;-70
2022/01/21 03:15:24;;;;;;;12.70;4.07;;;;;;;;;;5027906;28;20468;-70
2022/01/21 03:17:49;;;;;;;12.00;4.10;;;;;;;;;;5024624;28;20030;-70
2022/01/21 03:20:14;;;;;;;10.70;4.10;;;;;;;;;;5024347;28;20026;-70
2022/01/21 03:22:40;;;;;;;8.50;4.30;;;;;;;;;;5030512;28;20036;-70
2022/01/21 03:25:06;;;;;;;15.48;3.72;;;;;;;;;;5025470;28;20430;-70
2022/01/21 03:27:31;;;;;;;12.07;4.10;;;;;;;;;;5024711;28;20033;-71
2022/01/21 03:29:57;;;;;;;11.20;3.70;;;;;;;;;;5024553;28;20018;-70
2022/01/21 03:32:23;;;;;;;12.60;3.77;;;;;;;;;;5030202;28;20029;-69
2022/01/21 03:34:49;;;;;;;11.67;3.70;;;;;;;;;;5026520;28;20408;-70
2022/01/21 03:37:14;;;;;;;13.93;4.33;;;;;;;;;;5023748;28;20053;-71
2022/01/21 03:39:39;;;;;;;10.33;3.80;;;;;;;;;;5023637;28;20026;-70
2022/01/21 03:42:04;;;;;;;8.73;3.70;;;;;;;;;;5025345;28;20083;-70
2022/01/21 03:44:30;;;;;;;8.50;4.00;;;;;;;;;;5022964;28;20108;-70
2022/01/21 03:46:55;;;;;;;10.20;3.80;;;;;;;;;;5021672;28;20786;-70
2022/01/21 03:49:20;;;;;;;7.33;3.50;;;;;;;;;;5022887;28;20056;-70
2022/01/21 03:51:45;;;;;;;12.80;3.87;;;;;;;;;;5028870;28;20039;-69
2022/01/21 03:54:11;;;;;;;11.43;4.50;;;;;;;;;;5022162;28;20079;-70
2022/01/21 03:56:37;;;;;;;10.33;4.00;;;;;;;;;;5027994;28;20191;-70
2022/01/21 03:59:02;;;;;;;11.83;4.20;;;;;;;;;;5020193;28;20041;-70
2022/01/21 04:01:28;;;;;;;9.97;3.83;;;;;;;;;;5026624;28;20033;-70
2022/01/21 04:03:54;;;;;;;11.45;3.80;;;;;;;;;;5025789;28;20096;-70
2022/01/21 04:06:19;;;;;;;13.67;4.37;;;;;;;;;;5024814;28;20132;-70
2022/01/21 04:08:44;;;;;;;9.27;3.90;;;;;;;;;;5024288;28;20052;-70
2022/01/21 04:11:09;;;;;;;10.07;4.03;;;;;;;;;;5021707;28;20037;-70
2022/01/21 04:13:35;;;;;;;13.20;4.33;;;;;;;;;;5019990;28;20041;-69
2022/01/21 04:16:00;;;;;;;11.47;4.50;;;;;;;;;;5025575;28;20095;-70
2022/01/21 04:18:25;;;;;;;10.93;4.07;;;;;;;;;;5017290;28;20135;-70
2022/01/21 04:20:51;;;;;;;13.60;4.23;;;;;;;;;;5022914;28;20037;-71
2022/01/21 04:23:17;;;;;;;10.83;4.20;;;;;;;;;;5029400;28;20025;-70
2022/01/21 04:25:42;;;;;;;11.33;4.53;;;;;;;;;;5021316;28;20029;-70
2022/01/21 04:28:08;;;;;;;11.70;4.47;;;;;;;;;;5024660;28;20121;-70
2022/01/21 04:30:34;;;;;;;12.10;4.53;;;;;;;;;;5018023;28;20017;-71
2022/01/21 04:32:59;;;;;;;14.80;4.53;;;;;;;;;;5024309;28;20041;-70
2022/01/21 04:35:24;;;;;;;11.27;4.07;;;;;;;;;;5022201;28;20022;-70
2022/01/21 04:37:56;;;;;;;14.10;4.53;;;;;;;;;;5025292;28;20120;-71
2022/01/21 04:40:25;;;;;;;13.20;4.60;;;;;;;;;;5018409;28;20460;-70
2022/01/21 04:48:17;;;;;;;13.27;4.60;;;;;;;;;;5020320;28;20041;-70
2022/01/21 04:50:54;;;;;;;12.80;4.23;;;;;;;;;;5020035;28;20033;-70
2022/01/21 04:53:20;;;;;;;13.40;4.47;;;;;;;;;;5022744;28;20045;-70
2022/01/21 04:55:46;;;;;;;13.93;4.93;;;;;;;;;;5022677;28;20116;-70
2022/01/21 04:58:12;;;;;;;12.70;5.17;;;;;;;;;;5026725;28;20037;-70
2022/01/21 05:00:37;;;;;;;16.77;4.77;;;;;;;;;;5023046;28;20022;-71
2022/01/21 05:03:03;;;;;;;10.40;4.77;;;;;;;;;;5021862;28;20037;-70
2022/01/21 05:05:28;;;;;;;12.93;4.80;;;;;;;;;;5021569;28;20409;-71
2022/01/21 05:07:54;;;;;;;13.00;4.30;;;;;;;;;;5021933;28;20132;-69
2022/01/21 05:10:20;;;;;;;12.60;4.53;;;;;;;;;;5027371;28;20021;-69
2022/01/21 05:12:45;;;;;;;12.03;4.57;;;;;;;;;;5022697;28;20053;-69
2022/01/21 05:15:27;;;;;;;11.23;4.53;;;;;;;;;;5024424;28;20017;-69
2022/01/21 05:17:52;;;;;;;11.77;4.57;;;;;;;;;;5017234;28;20419;-67
2022/01/21 05:20:18;;;;;;;11.93;4.60;;;;;;;;;;5025500;28;20056;-68
2022/01/21 05:22:44;;;;;;;12.03;4.63;;;;;;;;;;5026282;28;20039;-69
2022/01/21 05:25:16;;;;;;;13.77;4.67;;;;;;;;;;5018796;28;20021;-70
2022/01/21 05:27:43;;;;;;;12.77;4.50;;;;;;;;;;5027419;28;20029;-70
2022/01/21 05:30:08;;;;;;;15.03;5.03;;;;;;;;;;5023835;28;20029;-68
2022/01/21 05:32:34;;;;;;;13.27;4.57;;;;;;;;;;5025138;28;20095;-69
2022/01/21 05:34:59;;;;;;;18.03;4.83;;;;;;;;;;5020388;28;20033;-69
2022/01/21 05:37:24;;;;;;;10.03;4.60;;;;;;;;;;5018329;28;20100;-69
2022/01/21 05:39:50;;;;;;;11.80;4.73;;;;;;;;;;5022640;28;20385;-70
2022/01/21 05:42:15;;;;;;;13.43;4.60;;;;;;;;;;5024328;28;20033;-69
2022/01/21 05:47:09;;;;;;;11.77;4.90;;;;;;;;;;5025919;28;20071;-70
2022/01/21 05:49:36;;;;;;;13.10;4.67;;;;;;;;;;5024699;28;20098;-71
2022/01/21 05:52:15;;;;;;;12.30;4.90;;;;;;;;;;5030816;28;20136;-70
2022/01/21 05:54:43;;;;;;;13.57;4.60;;;;;;;;;;5027412;28;20095;-70
2022/01/21 05:57:11;;;;;;;12.90;3.97;;;;;;;;;;5023772;28;20175;-70
2022/01/21 05:59:36;;;;;;;13.33;3.97;;;;;;;;;;5027101;28;20112;-69
2022/01/21 06:02:02;;;;;;;8.70;3.40;;;;;;;;;;5023630;28;20104;-70
2022/01/21 06:04:27;;;;;;;9.87;2.73;;;;;;;;;;5026836;28;20048;-68
2022/01/21 06:06:52;;;;;;;10.20;3.10;;;;;;;;;;5016499;28;20133;-69
2022/01/21 06:09:17;;;;;;;12.00;3.17;;;;;;;;;;5026404;28;20072;-69
2022/01/21 06:11:43;;;;;;;9.37;2.87;;;;;;;;;;5026809;28;20025;-68
2022/01/21 06:14:08;;;;;;;10.53;2.57;;;;;;;;;;5021711;28;20033;-69
2022/01/21 06:16:34;;;;;;;6.53;2.73;;;;;;;;;;5023486;28;20045;-70
2022/01/21 06:19:00;;;;;;;6.77;2.30;;;;;;;;;;5029726;28;20060;-68
2022/01/21 06:21:25;;;;;;;7.27;2.60;;;;;;;;;;5030399;28;20102;-68
2022/01/21 06:23:50;;;;;;;8.07;2.70;;;;;;;;;;5028021;28;20544;-70
2022/01/21 06:26:15;;;;;;;9.37;2.83;;;;;;;;;;5028935;28;20020;-69
2022/01/21 06:28:40;;;;;;;12.40;2.70;;;;;;;;;;5020920;28;20038;-69
2022/01/21 06:31:06;;;;;;;12.23;2.70;;;;;;;;;;5019712;28;20661;-69
2022/01/21 06:33:31;;;;;;;7.20;2.80;;;;;;;;;;5025904;28;20120;-69
2022/01/21 06:35:56;;;;;;;8.67;2.97;;;;;;;;;;5028925;28;20111;-68
2022/01/21 06:38:22;;;;;;;8.80;3.00;;;;;;;;;;5023296;28;20026;-69
2022/01/21 06:40:47;;;;;;;10.47;2.60;;;;;;;;;;5022110;28;20461;-70
2022/01/21 06:43:13;;;;;;;8.60;3.00;;;;;;;;;;5026127;28;20101;-69
2022/01/21 06:45:39;;;;;;;9.27;2.90;;;;;;;;;;5025370;28;20032;-69
2022/01/21 06:48:04;;;;;;;10.57;2.90;;;;;;;;;;5022631;28;20543;-69
2022/01/21 06:50:30;;;;;;;10.30;3.03;;;;;;;;;;5020130;28;20080;-71
2022/01/21 06:52:55;;;;;;;7.93;2.30;;;;;;;;;;5025501;28;20043;-72
2022/01/21 06:55:21;;;;;;;7.33;2.67;;;;;;;;;;5023132;28;20039;-72
2022/01/21 06:57:46;;;;;;;14.50;3.37;;;;;;;;;;5019761;28;20033;-69
2022/01/21 07:00:13;;;;;;;10.17;3.33;;;;;;;;;;5022350;28;20032;-71
2022/01/21 07:02:38;;;;;;;10.70;2.87;;;;;;;;;;5020491;28;20075;-70
2022/01/21 07:05:04;;;;;;;9.67;3.20;;;;;;;;;;5019314;28;20034;-71
2022/01/21 07:07:30;;;;;;;10.53;3.77;;;;;;;;;;5020990;28;20049;-71
2022/01/21 07:09:55;;;;;;;9.47;3.40;;;;;;;;;;5021893;28;20468;-71
2022/01/21 07:12:21;;;;;;;9.60;3.07;;;;;;;;;;5019986;28;20033;-71
2022/01/21 07:14:46;;;;;;;10.07;3.40;;;;;;;;;;5023952;28;20049;-71
2022/01/21 07:17:11;;;;;;;12.17;3.17;;;;;;;;;;5018515;28;20070;-72
2022/01/21 07:19:36;;;;;;;10.33;3.40;;;;;;;;;;5028115;28;20081;-71
2022/01/21 07:22:02;;;;;;;11.37;3.40;;;;;;;;;;5015796;28;20109;-71
2022/01/21 07:24:27;;;;;;;10.87;3.47;;;;;;;;;;5021884;28;20115;-71
2022/01/21 07:26:52;;;;;;;13.70;3.57;;;;;;;;;;5026179;28;20029;-70
2022/01/21 07:29:18;;;;;;;10.13;3.40;;;;;;;;;;5030261;28;20029;-70
2022/01/21 07:31:43;;;;;;;11.97;3.90;;;;;;;;;;5028286;28;20033;-71
2022/01/21 07:34:08;;;;;;;11.57;4.20;;;;;;;;;;5028091;28;20033;-70
2022/01/21 07:36:33;;;;;;;11.53;3.57;;;;;;;;;;5027530;28;20022;-70
2022/01/21 07:38:59;;;;;;;10.07;3.93;;;;;;;;;;5029214;28;20026;-71
2022/01/21 07:41:24;;;;;;;11.70;4.07;;;;;;;;;;5029945;28;20037;-70
2022/01/21 07:43:50;;;;;;;14.47;4.70;;;;;;;;;;5017384;28;20030;-71
2022/01/21 07:46:16;;;;;;;13.43;4.43;;;;;;;;;;5029171;28;20017;-71
2022/01/21 07:48:41;;;;;;;13.37;4.90;;;;;;;;;;5036730;28;20026;-70
2022/01/21 07:51:06;;;;;;;11.93;5.53;;;;;;;;;;5030077;28;20045;-71
2022/01/21 07:53:31;;;;;;;15.53;5.07;;;;;;;;;;5030313;28;20404;-71
2022/01/21 07:55:57;;;;;;;13.03;4.77;;;;;;;;;;5029958;28;20033;-70
2022/01/21 07:58:22;;;;;;;14.40;4.80;;;;;;;;;;5030587;28;20104;-71
2022/01/21 08:00:48;;;;;;;12.30;5.57;;;;;;;;;;5030038;28;20052;-71
2022/01/21 08:03:14;;;;;;;13.00;5.00;;;;;;;;;;5029719;28;20357;-71
2022/01/21 08:05:39;;;;;;;15.53;5.00;;;;;;;;;;5021534;28;20032;-71
2022/01/21 08:08:04;;;;;;;12.27;4.60;;;;;;;;;;5022953;28;20503;-71
2022/01/21 08:10:31;;;;;;;11.33;4.73;;;;;;;;;;5029929;28;20143;-71
2022/01/21 08:12:56;;;;;;;16.00;5.00;;;;;;;;;;5030132;28;20029;-71
2022/01/21 08:15:22;;;;;;;13.63;4.57;;;;;;;;;;5030126;28;20033;-72
2022/01/21 08:17:47;;;;;;;11.57;4.00;;;;;;;;;;5029662;28;20511;-73
2022/01/21 08:20:12;;;;;;;16.33;4.13;;;;;;;;;;5029970;28;20372;-72
2022/01/21 08:22:37;;;;;;;15.20;5.13;;;;;;;;;;5027647;28;20417;-72
2022/01/21 08:25:03;;;;;;;12.10;4.63;;;;;;;;;;5027029;28;20017;-70
2022/01/21 08:27:28;;;;;;;13.10;4.33;;;;;;;;;;5029913;28;20474;-71
2022/01/21 08:29:53;;;;;;;14.90;4.90;;;;;;;;;;5029926;28;20431;-70
2022/01/21 08:32:20;;;;;;;12.27;4.30;;;;;;;;;;5025646;28;20025;-71
2022/01/21 08:34:45;;;;;;;10.77;4.80;;;;;;;;;;5027022;28;20068;-69
2022/01/21 08:37:11;;;;;;;12.87;5.10;;;;;;;;;;5027584;28;20033;-71
2022/01/21 08:39:36;;;;;;;13.33;4.63;;;;;;;;;;5027398;28;20021;-71
2022/01/21 08:42:03;;;;;;;15.20;4.53;;;;;;;;;;5029482;28;20079;-70
2022/01/21 08:44:28;;;;;;;10.97;4.03;;;;;;;;;;5029414;28;20030;-71
2022/01/21 08:46:53;;;;;;;10.83;3.63;;;;;;;;;;5027845;28;20029;-71
2022/01/21 08:49:20;;;;;;;11.07;4.17;;;;;;;;;;5020458;28;20045;-70
2022/01/21 08:51:54;;;;;;;17.75;4.35;;;;;;;;;;5027180;28;20049;-71
2022/01/21 08:54:20;;;;;;;13.35;4.03;;;;;;;;;;5029368;28;20029;-72
2022/01/21 08:56:46;;;;;;;10.18;3.88;;;;;;;;;;5029357;28;20112;-71
2022/01/21 08:59:11;;;;;;;10.80;4.00;;;;;;;;;;5027610;28;20123;-71
2022/01/21 09:01:36;;;;;;;11.52;4.03;;;;;;;;;;5026287;28;20025;-70
2022/01/21 09:04:02;;;;;;;11.17;3.93;;;;;;;;;;5026224;28;20087;-70
2022/01/21 09:06:29;;;;;;;12.00;4.28;;;;;;;;;;5028945;28;20657;-71
2022/01/21 09:08:55;;;;;;;10.00;3.80;;;;;;;;;;5029494;28;20029;-69
2022/01/21 09:11:20;;;;;;;8.30;3.92;;;;;;;;;;5025843;28;20384;-70
2022/01/21 09:13:45;;;;;;;10.32;4.28;;;;;;;;;;5027370;28;20065;-70
2022/01/21 09:16:11;;;;;;;12.52;4.43;;;;;;;;;;5028965;28;20034;-71
2022/01/21 09:21:15;;;;;;;8.47;4.30;;;;;;;;;;5029581;28;20027;-71
2022/01/21 09:23:41;;;;;;;10.30;4.07;;;;;;;;;;5029288;28;20441;-71
2022/01/21 09:26:07;;;;;;;11.20;3.95;;;;;;;;;;5029601;28;20117;-71
2022/01/21 09:28:33;;;;;;;13.87;3.87;;;;;;;;;;5028860;28;20026;-70
2022/01/21 09:30:58;;;;;;;13.00;4.10;;;;;;;;;;5029011;28;20032;-72
2022/01/21 09:33:23;;;;;;;12.20;3.72;;;;;;;;;;5028906;28;20041;-71
2022/01/21 09:35:48;;;;;;;12.77;4.10;;;;;;;;;;5029177;28;20094;-72
2022/01/21 09:38:14;;;;;;;11.40;3.53;;;;;;;;;;5029138;28;20022;-72
2022/01/21 09:40:42;;;;;;;11.70;4.10;;;;;;;;;;5028395;28;20021;-71
2022/01/21 09:43:08;;;;;;;11.93;3.37;;;;;;;;;;5025854;28;20075;-71
2022/01/21 09:45:33;;;;;;;14.75;3.78;;;;;;;;;;5029035;28;20029;-72
2022/01/21 09:48:04;;;;;;;13.32;4.13;;;;;;;;;;5023121;28;20029;-72
2022/01/21 09:50:29;;;;;;;11.13;3.22;;;;;;;;;;5030075;28;20130;-71
2022/01/21 09:52:55;;;;;;;9.43;3.30;;;;;;;;;;5049304;28;20068;-71
2022/01/21 09:55:22;;;;;;;9.75;3.10;;;;;;;;;;5033620;28;20025;-72
2022/01/21 09:57:48;;;;;;;11.63;3.77;;;;;;;;;;5033431;28;20021;-72
2022/01/21 10:00:14;;;;;;;12.63;3.77;;;;;;;;;;5032995;28;20025;-71
2022/01/21 10:02:40;;;;;;;10.43;3.65;;;;;;;;;;5039057;28;20079;-71
2022/01/21 10:05:06;;;;;;;7.87;3.10;;;;;;;;;;5032801;28;20029;-70
2022/01/21 10:07:31;;;;;;;7.97;3.27;;;;;;;;;;5031895;28;20061;-71
2022/01/21 10:10:06;;;;;;;14.93;3.53;;;;;;;;;;5032519;28;20100;-71
2022/01/21 10:12:31;;;;;;;9.87;3.73;;;;;;;;;;5032493;28;20505;-73
2022/01/21 10:14:57;;;;;;;11.50;3.23;;;;;;;;;;5032581;28;20129;-71
2022/01/21 10:17:22;;;;;;;6.18;2.75;;;;;;;;;;5032730;28;20030;-73
2022/01/21 10:19:51;;;;;;;12.63;3.42;;;;;;;;;;5032510;28;20029;-72
2022/01/21 10:22:19;;;;;;;9.90;3.00;;;;;;;;;;5037912;28;20037;-72
2022/01/21 10:24:54;;;;;;;10.35;3.30;;;;;;;;;;5029980;28;20095;-71
2022/01/21 10:27:40;;;;;;;11.02;3.22;;;;;;;;;;5032593;28;20013;-72
2022/01/21 10:30:28;;;;;;;12.23;3.60;;;;;;;;;;5031872;28;20120;-72
2022/01/21 10:32:54;;;;;;;12.07;3.35;;;;;;;;;;5031831;28;20029;-70
2022/01/21 10:35:21;;;;;;;12.82;4.50;;;;;;;;;;5032410;28;20075;-72
2022/01/21 10:37:46;;;;;;;12.15;3.65;;;;;;;;;;5032094;28;20018;-71
2022/01/21 10:40:11;;;;;;;8.63;3.50;;;;;;;;;;5029020;28;20073;-70
2022/01/21 10:42:37;;;;;;;9.80;3.55;;;;;;;;;;5031914;28;20389;-72
2022/01/21 10:45:04;;;;;;;12.27;4.63;;;;;;;;;;5031933;28;20025;-70
2022/01/21 10:47:36;;;;;;;15.98;4.13;;;;;;;;;;5031798;28;20026;-71
2022/01/21 10:50:11;;;;;;;14.15;3.80;;;;;;;;;;5031794;28;20026;-71
2022/01/21 10:52:42;;;;;;;11.68;3.88;;;;;;;;;;5035249;28;20041;-71
2022/01/21 10:55:25;;;;;;;12.35;3.63;;;;;;;;;;5032065;28;20074;-72
2022/01/21 10:58:02;;;;;;;14.85;3.95;;;;;;;;;;5024868;28;20105;-72
2022/01/21 11:00:28;;;;;;;16.33;5.10;;;;;;;;;;5031339;28;20498;-72
2022/01/21 11:02:54;;;;;;;10.85;4.03;;;;;;;;;;5030899;28;20079;-71
2022/01/21 11:05:32;;;;;;;11.82;4.10;;;;;;;;;;5031483;28;20395;-71
2022/01/21 11:08:18;;;;;;;9.95;3.60;;;;;;;;;;5031252;28;20174;-71
2022/01/21 11:10:46;;;;;;;11.68;3.55;;;;;;;;;;5027149;28;20373;-70
2022/01/21 11:13:23;;;;;;;8.93;3.28;;;;;;;;;;5030515;28;20033;-72
2022/01/21 11:15:49;;;;;;;7.70;3.00;;;;;;;;;;5031361;28;20041;-70
2022/01/21 11:18:18;;;;;;;10.48;2.97;;;;;;;;;;5030524;28;20054;-71
2022/01/21 11:20:46;;;;;;;10.35;3.30;;;;;;;;;;5031272;28;20051;-71
2022/01/21 11:23:12;;;;;;;8.47;3.20;;;;;;;;;;5032826;28;20040;-71
2022/01/21 11:25:41;;;;;;;12.88;3.50;;;;;;;;;;5029877;28;20392;-73
2022/01/21 11:28:07;;;;;;;8.35;3.20;;;;;;;;;;5027577;28;20017;-70
2022/01/21 11:30:32;;;;;;;7.50;2.90;;;;;;;;;;5029243;28;20044;-71
2022/01/21 11:32:57;;;;;;;13.35;3.38;;;;;;;;;;5030989;28;20029;-70
2022/01/21 11:35:23;;;;;;;9.82;3.00;;;;;;;;;;5025828;28;20128;-71
2022/01/21 11:37:48;;;;;;;13.18;2.97;;;;;;;;;;5015935;28;20045;-71
2022/01/21 11:40:13;;;;;;;12.30;3.30;;;;;;;;;;5029246;28;20270;-70
2022/01/21 11:42:39;;;;;;;13.50;3.40;;;;;;;;;;5029108;28;20037;-72
2022/01/21 11:45:18;;;;;;;8.23;3.05;;;;;;;;;;5030919;28;20087;-71
2022/01/21 11:48:07;;;;;;;;;;;;;;;;;;5033384;28;20033;-71
2022/01/21 11:50:32;;;;;;;10.60;2.80;;;;;;;;;;5030447;28;19909;-71
2022/01/21 11:52:58;;;;;;;9.52;3.55;;;;;;;;;;5033771;28;20151;-70
2022/01/21 11:55:37;;;;;;;9.30;2.75;;;;;;;;;;5030671;28;20144;-71
2022/01/21 11:58:13;;;;;;;10.70;3.35;;;;;;;;;;5025636;28;20021;-71
2022/01/21 12:00:40;;;;;;;10.75;3.05;;;;;;;;;;5021708;28;20088;-71
2022/01/21 12:03:05;;;;;;;12.45;3.20;;;;;;;;;;5030372;28;20021;-72
2022/01/21 12:05:30;;;;;;;8.10;3.05;;;;;;;;;;5030001;28;20024;-71
2022/01/21 12:07:58;;;;;;;11.15;2.83;;;;;;;;;;5030240;28;20482;-70
2022/01/21 12:10:28;;;;;;;10.63;3.50;;;;;;;;;;5030236;28;20479;-71
2022/01/21 12:12:54;;;;;;;9.43;2.53;;;;;;;;;;5030001;28;20044;-71
2022/01/21 12:15:36;;;;;;;9.73;2.60;;;;;;;;;;5029124;28;20455;-71
2022/01/21 12:20:58;;;;;;;10.35;2.38;;;;;;;;;;5024322;28;20407;-72
2022/01/21 12:23:25;;;;;;;5.70;1.80;;;;;;;;;;5024329;28;20024;-71
2022/01/21 12:26:08;;;;;;;6.00;2.05;;;;;;;;;;5024351;28;20032;-71
2022/01/21 12:28:34;;;;;;;8.60;2.58;;;;;;;;;;5022924;28;20026;-70
2022/01/21 12:30:59;;;;;;;7.45;2.28;;;;;;;;;;5025618;28;20036;-71
2022/01/21 12:33:44;;;;;;;7.28;2.38;;;;;;;;;;5023451;28;20079;-72
2022/01/21 12:36:10;;;;;;;10.93;3.03;;;;;;;;;;5027512;28;20391;-71
2022/01/21 12:41:04;;;;;;;14.77;3.25;;;;;;;;;;5029889;28;20030;-70
2022/01/21 12:43:38;;;;;;;11.65;2.92;;;;;;;;;;5029463;28;20388;-70
2022/01/21 12:46:05;;;;;;;6.97;2.70;;;;;;;;;;5029440;28;20112;-71
2022/01/21 12:48:34;;;;;;;9.50;2.80;;;;;;;;;;5029197;28;20159;-70
2022/01/21 12:51:07;;;;;;;9.90;2.95;;;;;;;;;;5027655;28;20365;-72
2022/01/21 12:53:44;;;;;;;8.00;2.72;;;;;;;;;;5028378;28;20041;-70
2022/01/21 12:56:10;;;;;;;7.40;2.60;;;;;;;;;;5023544;28;20144;-72
2022/01/21 12:58:39;;;;;;;12.63;3.30;;;;;;;;;;5029295;28;20057;-70
2022/01/21 13:01:06;;;;;;;7.88;3.25;;;;;;;;;;5027302;28;20076;-71
2022/01/21 13:03:34;;;;;;;7.65;2.80;;;;;;;;;;5028649;28;20036;-72
2022/01/21 13:06:07;;;;;;;12.30;3.25;;;;;;;;;;5031852;28;20044;-70
2022/01/21 13:08:38;;;;;;;9.02;2.63;;;;;;;;;;5021809;28;20439;-63
2022/01/21 13:11:23;;;;;;;9.15;2.72;;;;;;;;;;5030291;28;20101;-62
2022/01/21 13:14:00;;;;;;;6.68;2.40;;;;;;;;;;5018674;28;20041;-62
2022/01/21 13:16:27;;;;;;;7.40;2.10;;;;;;;;;;5027991;28;20009;-62
2022/01/21 13:19:02;;;;;;;7.38;2.25;;;;;;;;;;5026321;28;20025;-63
2022/01/21 13:21:28;;;;;;;5.63;2.50;;;;;;;;;;5021603;28;20033;-62
2022/01/21 13:23:58;;;;;;;9.73;2.42;;;;;;;;;;5022813;28;20026;-61
2022/01/21 13:26:28;;;;;;;9.13;2.67;;;;;;;;;;5026634;28;20435;-62
2022/01/21 13:28:54;;;;;;;11.88;3.35;;;;;;;;;;5025517;28;20025;-64
2022/01/21 13:31:19;;;;;;;9.07;2.75;;;;;;;;;;5028634;28;20465;-63
2022/01/21 13:33:44;;;;;;;10.57;2.63;;;;;;;;;;5028324;28;20163;-63
2022/01/21 13:36:10;;;;;;;7.22;2.80;;;;;;;;;;5026368;28;20014;-64
2022/01/21 13:38:36;;;;;;;7.50;2.90;;;;;;;;;;5026806;28;20032;-63
2022/01/21 13:41:02;;;;;;;8.82;2.50;;;;;;;;;;5026111;28;20067;-62
2022/01/21 13:43:29;;;;;;;8.20;2.25;;;;;;;;;;5024184;28;20380;-63
2022/01/21 13:45:54;;;;;;;8.45;2.50;;;;;;;;;;5027283;28;20022;-62
2022/01/21 13:48:19;;;;;;;6.36;2.24;;;;;;;;;;5024061;28;20040;-63
2022/01/21 13:50:45;;;;;;;6.63;2.30;;;;;;;;;;5022635;28;20195;-63
2022/01/21 13:53:10;;;;;;;9.77;2.70;;;;;;;;;;5038361;28;20388;-63
2022/01/21 13:55:41;;;;;;;7.50;2.72;;;;;;;;;;5025065;28;20029;-63
2022/01/21 13:58:12;;;;;;;9.05;2.45;;;;;;;;;;5024441;28;20037;-62
2022/01/21 14:00:38;;;;;;;8.57;2.58;;;;;;;;;;5025753;28;20048;-62
2022/01/21 14:03:06;;;;;;;9.18;2.40;;;;;;;;;;5028344;28;20029;-63
2022/01/21 14:05:41;;;;;;;6.40;2.35;;;;;;;;;;5030041;28;20074;-63
2022/01/21 14:08:10;;;;;;;7.70;2.63;;;;;;;;;;5027993;28;20057;-63
2022/01/21 14:10:35;;;;;;;9.07;2.47;;;;;;;;;;5022880;28;20863;-62
2022/01/21 14:13:01;;;;;;;8.88;2.70;;;;;;;;;;5027538;28;20141;-62
2022/01/21 14:15:29;;;;;;;12.10;2.67;;;;;;;;;;5027356;28;20144;-62
2022/01/21 14:17:54;;;;;;;8.50;2.45;;;;;;;;;;5027799;28;20100;-61
2022/01/21 14:20:21;;;;;;;10.00;2.63;;;;;;;;;;5023235;28;20455;-62
2022/01/21 14:22:47;;;;;;;8.75;2.33;;;;;;;;;;5026392;28;20037;-63
2022/01/21 14:25:13;;;;;;;8.25;2.42;;;;;;;;;;5024000;28;20013;-62
2022/01/21 14:27:38;;;;;;;6.38;2.30;;;;;;;;;;5025025;28;20041;-63
2022/01/21 14:30:05;;;;;;;10.23;2.35;;;;;;;;;;5023051;28;20093;-62
2022/01/21 14:32:37;;;;;;;4.80;1.85;;;;;;;;;;5019147;28;20037;-62
2022/01/21 14:35:15;;;;;;;8.43;2.67;;;;;;;;;;5025505;28;20192;-63
2022/01/21 14:37:40;;;;;;;7.63;2.40;;;;;;;;;;5025508;28;20109;-63
2022/01/21 14:40:06;;;;;;;9.57;2.67;;;;;;;;;;5030620;28;20544;-63
2022/01/21 14:42:31;;;;;;;7.75;2.83;;;;;;;;;;5031174;28;20057;-62
2022/01/21 14:44:58;;;;;;;7.75;2.45;;;;;;;;;;5025611;28;20061;-62
2022/01/21 14:47:25;;;;;;;9.70;2.47;;;;;;;;;;5019929;28;20017;-64
2022/01/21 14:49:57;;;;;;;10.07;3.58;;;;;;;;;;5026785;28;20037;-63
2022/01/21 14:52:37;;;;;;;7.60;2.55;;;;;;;;;;5029773;28;20350;-63
2022/01/21 14:55:22;;;;;;;10.82;2.70;;;;;;;;;;5030285;28;20423;-63
2022/01/21 14:57:52;;;;;;;8.43;2.65;;;;;;;;;;5031463;28;20044;-63
2022/01/21 15:00:21;;;;;;;7.57;2.70;;;;;;;;;;5031410;28;20013;-64
2022/01/21 15:02:46;;;;;;;;;;;;;;;;;;5025598;28;20575;-62
2022/01/21 15:05:11;;;;;;;9.52;3.00;;;;;;;;;;5031150;28;19952;-64
2022/01/21 15:07:39;;;;;;;12.43;2.78;;;;;;;;;;5031265;28;20287;-63
2022/01/21 15:10:37;;;;;;;9.20;3.00;;;;;;;;;;5031174;28;20025;-62
2022/01/21 15:16:12;;;;;;;8.40;3.03;;;;;;;;;;5031179;28;20075;-63
2022/01/21 15:18:37;;;;;;;8.20;2.78;;;;;;;;;;5031184;28;20032;-61
2022/01/21 15:21:03;;;;;;;7.95;2.80;;;;;;;;;;5032160;28;20025;-63
2022/01/21 15:23:28;;;;;;;9.75;3.00;;;;;;;;;;5032714;28;20048;-62
2022/01/21 15:25:54;;;;;;;9.30;3.08;;;;;;;;;;5023359;28;20575;-64
2022/01/21 15:28:19;;;;;;;8.90;3.30;;;;;;;;;;5042626;28;20059;-63
2022/01/21 15:30:44;;;;;;;8.80;3.33;;;;;;;;;;5027895;28;20037;-63
2022/01/21 15:33:10;;;;;;;6.97;3.00;;;;;;;;;;5032781;28;20029;-63